Time;durP1;ratioP1;P1;durP2;ratioP2;P2;SDS_P1;SDS_P2;PMS_P1;PMS_P2;Temp;Humidity;BMP_temperature;BMP_pressure;BME280_temperature;BME280_humidity;BME280_pressure;Samples;Min_cycle;Max_cycle;Signal;HPM_P1;HPM_P2
2022/01/05 00:00:32;;;;;;;20.40;11.18;;;;;;;12.30;80.14;99969.75;5097036;28;20488;-67
2022/01/05 00:02:57;;;;;;;23.05;13.35;;;;;;;12.34;80.47;99980.94;5113072;28;20386;-67
2022/01/05 00:05:23;;;;;;;18.35;13.32;;;;;;;12.06;80.91;99940.34;5097050;28;20036;-67
2022/01/05 00:07:49;;;;;;;24.67;15.30;;;;;;;12.13;81.61;99980.66;5096877;28;20370;-67
2022/01/05 00:10:14;;;;;;;18.67;14.13;;;;;;;12.11;81.88;99972.69;5079413;28;20470;-67
2022/01/05 00:12:40;;;;;;;18.25;14.05;;;;;;;12.27;81.48;99970.50;5096152;28;20059;-67
2022/01/05 00:15:06;;;;;;;27.17;15.55;;;;;;;12.40;80.98;99959.88;5097025;28;20024;-68
2022/01/05 00:17:32;;;;;;;23.73;16.08;;;;;;;12.26;81.24;99966.09;5095699;28;20020;-67
2022/01/05 00:19:57;;;;;;;23.95;15.57;;;;;;;12.16;81.49;99963.19;5095559;28;20110;-67
2022/01/05 00:22:23;;;;;;;42.25;23.60;;;;;;;11.98;82.43;99969.31;5097115;28;20478;-67
2022/01/05 00:24:49;;;;;;;26.60;18.63;;;;;;;11.90;82.64;99962.03;5095871;28;20024;-68
2022/01/05 00:27:15;;;;;;;30.60;19.17;;;;;;;11.84;83.18;99955.19;5096692;28;20028;-67
2022/01/05 00:29:41;;;;;;;19.05;13.23;;;;;;;11.87;82.98;99956.41;5095718;28;20024;-71
2022/01/05 00:32:07;;;;;;;23.30;14.55;;;;;;;11.86;82.35;99950.03;5095838;28;20447;-68
2022/01/05 00:34:33;;;;;;;15.02;10.43;;;;;;;11.91;82.16;99952.47;5096620;28;20028;-67
2022/01/05 00:36:59;;;;;;;13.80;10.57;;;;;;;11.93;81.97;99955.72;5096581;28;20024;-68
2022/01/05 00:39:25;;;;;;;14.32;10.45;;;;;;;11.90;82.21;99952.88;5095209;28;20024;-68
2022/01/05 00:41:50;;;;;;;16.60;10.38;;;;;;;12.02;82.08;99949.84;5095208;28;20034;-67
2022/01/05 00:44:16;;;;;;;16.05;10.35;;;;;;;12.01;81.37;99946.25;5096152;28;20073;-67
2022/01/05 00:46:44;;;;;;;14.90;9.70;;;;;;;11.90;81.00;99928.59;5095085;28;20114;-67
2022/01/05 00:49:10;;;;;;;10.95;7.57;;;;;;;11.99;80.98;99950.63;5095544;28;20482;-67
2022/01/05 00:51:36;;;;;;;10.65;7.90;;;;;;;11.81;81.38;99916.88;5097343;28;20024;-67
2022/01/05 00:54:01;;;;;;;9.93;6.95;;;;;;;11.93;80.85;99943.72;5097085;28;20031;-67
2022/01/05 00:56:27;;;;;;;11.48;8.18;;;;;;;11.95;80.79;99939.41;5096212;28;20028;-67
2022/01/05 00:58:52;;;;;;;9.07;5.82;;;;;;;11.97;80.13;99948.19;5095156;28;20024;-67
2022/01/05 01:01:18;;;;;;;8.88;6.18;;;;;;;12.14;79.27;99951.59;5094747;28;20368;-67
2022/01/05 01:03:44;;;;;;;10.57;5.82;;;;;;;12.07;79.63;99943.94;5094484;28;20040;-66
2022/01/05 01:06:09;;;;;;;9.15;5.07;;;;;;;12.12;79.57;99931.66;5094708;28;20056;-66
2022/01/05 01:08:35;;;;;;;7.78;5.28;;;;;;;12.10;79.59;99932.03;5094542;28;20032;-68
2022/01/05 01:11:00;;;;;;;7.90;4.53;;;;;;;12.07;79.89;99932.78;5095311;28;20063;-68
2022/01/05 01:13:26;;;;;;;10.10;5.22;;;;;;;12.03;79.96;99932.72;5094873;28;20085;-67
2022/01/05 01:15:52;;;;;;;11.52;4.88;;;;;;;12.29;79.29;99936.63;5094555;28;20032;-66
2022/01/05 01:18:19;;;;;;;6.63;4.60;;;;;;;12.45;78.09;99942.00;5094446;28;20025;-66
2022/01/05 01:20:49;;;;;;;8.07;4.90;;;;;;;12.27;78.83;99947.38;5095459;28;20039;-66
2022/01/05 01:23:19;;;;;;;12.48;7.22;;;;;;;12.17;79.66;99948.84;5095674;28;20019;-68
2022/01/05 01:25:47;;;;;;;7.97;5.22;;;;;;;12.05;79.57;99935.94;5095788;28;20101;-67
2022/01/05 01:28:13;;;;;;;10.15;5.35;;;;;;;12.07;80.03;99939.16;5094282;28;20024;-68
2022/01/05 01:30:39;;;;;;;8.93;7.03;;;;;;;12.09;80.19;99932.38;5094174;28;20047;-67
2022/01/05 01:33:04;;;;;;;11.18;4.75;;;;;;;12.06;79.99;99936.75;5094467;28;20034;-68
2022/01/05 01:35:30;;;;;;;7.20;4.75;;;;;;;12.03;80.80;99932.72;5094441;28;20454;-66
2022/01/05 01:37:56;;;;;;;5.25;4.47;;;;;;;12.04;80.76;99937.16;5094359;28;20417;-69
2022/01/05 01:40:22;;;;;;;9.30;5.68;;;;;;;12.09;80.56;99935.19;5094065;28;20085;-68
2022/01/05 01:42:48;;;;;;;8.15;5.28;;;;;;;11.99;80.67;99911.56;5093943;28;20024;-68
2022/01/05 01:45:14;;;;;;;12.40;5.93;;;;;;;12.08;80.38;99934.38;5094278;28;20402;-67
2022/01/05 01:47:41;;;;;;;10.20;4.78;;;;;;;12.23;79.76;99929.78;5093920;28;20114;-67
2022/01/05 01:50:12;;;;;;;7.10;4.35;;;;;;;12.14;80.52;99937.63;5093919;28;20024;-67
2022/01/05 01:52:37;;;;;;;7.97;4.20;;;;;;;12.09;80.75;99930.44;5077364;28;20024;-67
2022/01/05 01:55:04;;;;;;;5.93;4.20;;;;;;;12.10;80.77;99928.44;5094287;28;20140;-68
2022/01/05 01:57:33;;;;;;;7.60;4.72;;;;;;;11.89;81.57;99899.09;5094007;28;20032;-67
2022/01/05 02:00:00;;;;;;;6.95;4.80;;;;;;;12.18;80.67;99922.56;5095011;28;20470;-68
2022/01/05 02:02:29;;;;;;;7.70;5.22;;;;;;;12.15;80.47;99914.16;5093924;28;20024;-67
2022/01/05 02:04:55;;;;;;;6.45;4.95;;;;;;;12.12;81.14;99918.50;5094452;28;20043;-67
2022/01/05 02:07:20;;;;;;;7.60;5.07;;;;;;;12.12;81.46;99912.91;5095134;28;20373;-67
2022/01/05 02:09:46;;;;;;;10.52;5.82;;;;;;;12.11;81.59;99916.09;5094468;28;20033;-67
2022/01/05 02:12:12;;;;;;;7.15;5.53;;;;;;;12.07;81.69;99900.13;5092946;28;20105;-67
2022/01/05 02:14:37;;;;;;;8.98;5.95;;;;;;;12.11;82.30;99905.75;5094688;28;20035;-66
2022/01/05 02:17:08;;;;;;;12.05;8.20;;;;;;;12.10;82.02;99894.97;5094963;28;20039;-67
2022/01/05 02:19:37;;;;;;;12.85;5.65;;;;;;;12.09;81.35;99890.56;5093689;28;20359;-67
2022/01/05 02:22:03;;;;;;;7.22;5.10;;;;;;;12.17;80.24;99889.47;5094083;28;20383;-68
2022/01/05 02:24:29;;;;;;;9.52;5.10;;;;;;;12.17;80.13;99881.09;5093971;28;20139;-68
2022/01/05 02:26:54;;;;;;;8.38;5.53;;;;;;;12.15;81.57;99884.28;5093471;28;20502;-67
2022/01/05 02:29:21;;;;;;;7.60;4.90;;;;;;;12.09;81.65;99868.25;5093399;28;20487;-65
2022/01/05 02:31:47;;;;;;;7.55;4.95;;;;;;;12.07;81.60;99871.44;5093023;28;20031;-66
2022/01/05 02:34:16;;;;;;;11.13;5.90;;;;;;;12.09;82.34;99874.66;5093035;28;20030;-67
2022/01/05 02:36:42;;;;;;;7.65;4.78;;;;;;;11.93;82.08;99848.94;5093344;28;20049;-67
2022/01/05 02:39:07;;;;;;;7.00;5.03;;;;;;;12.04;82.51;99861.84;5093023;28;20020;-67
2022/01/05 02:41:36;;;;;;;9.98;5.35;;;;;;;12.04;82.34;99869.41;5094032;28;20115;-67
2022/01/05 02:44:02;;;;;;;8.52;5.13;;;;;;;12.01;82.36;99862.59;5093900;28;20077;-67
2022/01/05 02:46:27;;;;;;;9.70;4.78;;;;;;;12.05;82.30;99868.22;5093786;28;20455;-67
2022/01/05 02:48:54;;;;;;;5.75;4.13;;;;;;;12.03;82.14;99860.22;5092974;28;20126;-68
2022/01/05 02:51:21;;;;;;;9.32;5.68;;;;;;;12.02;82.85;99855.84;5076060;28;20089;-67
2022/01/05 02:53:47;;;;;;;6.22;5.05;;;;;;;12.01;82.53;99851.44;5094666;28;20016;-67
2022/01/05 02:56:12;;;;;;;7.18;4.60;;;;;;;12.03;82.61;99851.06;5093068;28;20050;-68
2022/01/05 02:58:38;;;;;;;6.53;5.65;;;;;;;11.94;82.19;99820.69;5093762;28;20474;-67
2022/01/05 03:01:04;;;;;;;8.32;5.15;;;;;;;12.08;82.58;99853.50;5092690;28;20036;-67
2022/01/05 03:03:29;;;;;;;7.57;6.10;;;;;;;12.06;82.89;99825.22;5092678;28;20375;-67
2022/01/05 03:05:55;;;;;;;9.77;5.93;;;;;;;12.32;82.61;99838.25;5092912;28;20028;-67
2022/01/05 03:08:21;;;;;;;11.80;6.22;;;;;;;12.26;82.68;99837.00;5093914;28;20490;-67
2022/01/05 03:10:47;;;;;;;10.05;5.63;;;;;;;12.09;83.15;99829.22;5093343;28;20489;-67
2022/01/05 03:13:12;;;;;;;12.02;6.40;;;;;;;11.98;84.80;99829.09;5092555;28;20111;-67
2022/01/05 03:15:41;;;;;;;8.35;5.95;;;;;;;11.94;85.21;99829.06;5092514;28;20031;-67
2022/01/05 03:18:08;;;;;;;15.07;6.35;;;;;;;11.91;85.67;99821.44;5092497;28;20024;-67
2022/01/05 03:20:34;;;;;;;9.85;6.20;;;;;;;11.90;85.64;99825.44;5093795;28;20390;-67
2022/01/05 03:23:03;;;;;;;12.57;7.30;;;;;;;11.83;85.62;99808.63;5094075;28;20024;-67
2022/01/05 03:25:29;;;;;;;9.70;7.47;;;;;;;11.87;86.06;99809.44;5093730;28;20020;-68
2022/01/05 03:27:55;;;;;;;11.57;7.05;;;;;;;11.88;86.41;99813.88;5093727;28;20478;-68
2022/01/05 03:30:23;;;;;;;9.43;6.13;;;;;;;11.89;86.15;99807.09;5093329;28;20113;-67
2022/01/05 03:33:31;;;;;;;16.30;7.00;;;;;;;11.91;86.81;99804.72;5094064;28;20462;-67
2022/01/05 03:35:45;;;;;;;10.27;6.57;;;;;;;11.95;86.30;99796.41;5091874;28;20491;-67
2022/01/05 03:38:17;;;;;;;8.15;6.47;;;;;;;11.94;86.32;99801.19;5096692;28;20111;-67
2022/01/05 03:40:44;;;;;;;10.82;6.95;;;;;;;11.92;86.50;99792.38;5096629;28;20032;-67
2022/01/05 03:43:10;;;;;;;8.13;5.90;;;;;;;11.97;86.74;99797.63;5097611;28;20026;-67
2022/01/05 03:45:39;;;;;;;11.70;6.72;;;;;;;12.00;86.67;99801.66;5097620;28;20031;-67
2022/01/05 03:48:08;;;;;;;9.60;6.65;;;;;;;11.94;86.79;99784.47;5096225;28;20024;-68
2022/01/05 03:50:34;;;;;;;15.57;7.78;;;;;;;12.03;86.75;99796.09;5096570;28;20028;-68
2022/01/05 03:53:00;;;;;;;8.80;6.80;;;;;;;11.99;86.73;99784.13;5096448;28;20031;-67
2022/01/05 03:55:25;;;;;;;13.70;7.60;;;;;;;12.00;86.88;99771.78;5096371;28;20032;-67
2022/01/05 03:57:51;;;;;;;11.88;8.48;;;;;;;11.97;86.88;99786.47;5096379;28;20443;-67
2022/01/05 04:00:18;;;;;;;10.52;7.40;;;;;;;11.97;87.23;99796.81;5096042;28;20086;-66
2022/01/05 04:02:44;;;;;;;9.35;8.15;;;;;;;11.97;87.51;99789.25;5095995;28;20031;-66
2022/01/05 04:05:09;;;;;;;14.20;8.10;;;;;;;11.96;87.21;99782.09;5096919;28;20028;-66
2022/01/05 04:07:35;;;;;;;12.85;8.15;;;;;;;12.00;87.60;99782.13;5096830;28;20443;-69
2022/01/05 04:10:01;;;;;;;12.73;7.55;;;;;;;11.99;87.14;99774.97;5096877;28;20036;-67
2022/01/05 04:12:27;;;;;;;10.60;7.68;;;;;;;12.02;86.92;99788.91;5096797;28;20056;-67
2022/01/05 04:14:52;;;;;;;13.77;8.25;;;;;;;11.98;87.28;99788.06;5095763;28;20024;-68
2022/01/05 04:17:18;;;;;;;9.82;6.88;;;;;;;11.97;87.75;99789.25;5096002;28;20024;-66
2022/01/05 04:19:43;;;;;;;11.48;7.75;;;;;;;11.96;88.33;99787.66;5095669;28;20028;-67
2022/01/05 04:22:09;;;;;;;11.80;7.18;;;;;;;12.05;88.04;99785.38;5095604;28;20036;-67
2022/01/05 04:24:34;;;;;;;14.00;7.03;;;;;;;11.95;87.21;99768.53;5096525;28;20031;-68
2022/01/05 04:27:00;;;;;;;8.50;6.68;;;;;;;12.22;87.38;99785.94;5096551;28;20440;-67
2022/01/05 04:29:25;;;;;;;7.65;6.50;;;;;;;12.11;86.59;99785.84;5095470;28;20056;-67
2022/01/05 04:31:51;;;;;;;12.05;7.45;;;;;;;12.11;87.10;99787.81;5096406;28;20028;-67
2022/01/05 04:34:18;;;;;;;8.52;7.00;;;;;;;12.08;87.55;99778.22;5095243;28;20050;-67
2022/01/05 04:36:44;;;;;;;12.85;7.50;;;;;;;12.05;88.56;99777.00;5097317;28;20067;-67
2022/01/05 04:39:20;;;;;;;11.25;7.70;;;;;;;12.04;88.39;99767.03;5096654;28;20032;-68
2022/01/05 04:41:53;;;;;;;9.55;6.70;;;;;;;12.06;88.49;99775.81;5096277;28;20031;-67
2022/01/05 04:44:19;;;;;;;13.77;8.63;;;;;;;12.05;88.61;99760.28;5096372;28;20438;-68
2022/01/05 04:46:47;;;;;;;13.52;6.95;;;;;;;12.07;88.97;99773.81;5095359;28;20044;-68
2022/01/05 04:49:12;;;;;;;10.90;6.68;;;;;;;12.10;89.41;99769.50;5094786;28;20031;-68
2022/01/05 04:51:38;;;;;;;12.10;6.82;;;;;;;12.07;89.65;99760.69;5094931;28;20028;-67
2022/01/05 04:54:04;;;;;;;14.10;7.90;;;;;;;12.04;89.28;99760.66;5094980;28;20028;-68
2022/01/05 04:56:30;;;;;;;9.30;6.90;;;;;;;12.05;89.02;99756.69;5095225;28;20024;-66
2022/01/05 04:58:56;;;;;;;11.38;7.07;;;;;;;12.05;89.74;99757.50;5095891;28;20474;-68
2022/01/05 05:01:23;;;;;;;9.45;6.50;;;;;;;12.09;89.56;99753.91;5094897;28;20489;-68
2022/01/05 05:03:49;;;;;;;13.93;8.13;;;;;;;12.05;89.81;99745.53;5095867;28;20024;-68
2022/01/05 05:06:15;;;;;;;11.68;6.85;;;;;;;12.06;89.43;99741.56;5095594;28;20039;-68
2022/01/05 05:08:41;;;;;;;12.07;6.88;;;;;;;12.02;90.08;99740.72;5096214;28;20433;-68
2022/01/05 05:11:06;;;;;;;11.18;6.90;;;;;;;12.05;90.22;99739.97;5094603;28;20052;-66
2022/01/05 05:13:32;;;;;;;9.07;6.40;;;;;;;11.85;90.17;99714.25;5094932;28;20485;-67
2022/01/05 05:15:57;;;;;;;8.15;6.40;;;;;;;12.01;90.14;99745.50;5094947;28;20028;-68
2022/01/05 05:18:23;;;;;;;8.70;6.63;;;;;;;12.12;90.14;99748.38;5096034;28;20020;-67
2022/01/05 05:20:48;;;;;;;9.02;6.03;;;;;;;12.13;89.48;99746.41;5095325;28;20038;-66
2022/01/05 05:23:14;;;;;;;9.65;5.60;;;;;;;12.06;90.28;99731.19;5094765;28;20032;-68
2022/01/05 05:25:39;;;;;;;7.68;5.40;;;;;;;12.14;90.34;99737.63;5095688;28;20421;-67
2022/01/05 05:28:06;;;;;;;11.07;5.75;;;;;;;12.17;90.22;99730.50;5094318;28;20030;-68
2022/01/05 05:30:32;;;;;;;9.43;5.35;;;;;;;12.18;89.95;99737.69;5094182;28;20043;-68
2022/01/05 05:32:58;;;;;;;8.50;5.70;;;;;;;12.14;90.50;99737.63;5094260;28;20133;-67
2022/01/05 05:35:27;;;;;;;7.93;5.55;;;;;;;12.20;89.86;99735.31;5094529;28;20066;-68
2022/01/05 05:37:53;;;;;;;9.25;5.72;;;;;;;12.27;89.69;99735.38;5077781;28;20038;-68
2022/01/05 05:40:19;;;;;;;7.22;5.30;;;;;;;12.20;89.69;99729.75;5095932;28;20024;-67
2022/01/05 05:42:45;;;;;;;10.32;5.68;;;;;;;12.30;89.92;99740.16;5094595;28;20035;-67
2022/01/05 05:45:10;;;;;;;11.77;6.05;;;;;;;12.10;89.33;99708.94;5093868;28;20028;-67
2022/01/05 05:47:36;;;;;;;10.75;7.10;;;;;;;12.19;89.65;99723.34;5094973;28;20028;-67
2022/01/05 05:50:03;;;;;;;12.38;5.40;;;;;;;12.29;89.56;99727.41;5093930;28;20032;-67
2022/01/05 05:52:28;;;;;;;10.63;5.55;;;;;;;12.19;89.79;99731.72;5077350;28;20055;-67
2022/01/05 05:54:54;;;;;;;11.50;5.90;;;;;;;12.17;89.51;99724.94;5093289;28;20479;-68
2022/01/05 05:57:19;;;;;;;6.28;4.65;;;;;;;12.12;89.53;99719.69;5094318;28;20481;-67
2022/01/05 05:59:45;;;;;;;9.65;4.78;;;;;;;12.06;89.90;99725.63;5094037;28;20024;-67
2022/01/05 06:02:10;;;;;;;9.48;5.00;;;;;;;12.05;90.25;99728.81;5093994;28;20028;-67
2022/01/05 06:04:36;;;;;;;7.05;4.90;;;;;;;11.90;90.53;99702.78;5094628;28;20474;-67
2022/01/05 06:07:01;;;;;;;7.35;5.28;;;;;;;12.02;90.00;99719.22;5093497;28;20027;-67
2022/01/05 06:09:27;;;;;;;10.18;5.15;;;;;;;12.05;90.19;99723.22;5093440;28;20086;-68
2022/01/05 06:11:52;;;;;;;6.72;5.57;;;;;;;12.04;89.63;99716.06;5094606;28;20059;-67
2022/01/05 06:14:18;;;;;;;9.85;5.55;;;;;;;12.00;89.79;99709.63;5093433;28;20429;-67
2022/01/05 06:16:43;;;;;;;15.88;5.93;;;;;;;12.04;89.99;99707.69;5093367;28;20125;-67
2022/01/05 06:19:09;;;;;;;10.05;5.90;;;;;;;12.07;89.45;99707.69;5094666;28;20099;-67
2022/01/05 06:21:43;;;;;;;7.82;6.25;;;;;;;12.10;89.17;99702.56;5094310;28;20028;-67
2022/01/05 06:24:08;;;;;;;9.88;5.05;;;;;;;12.09;89.03;99717.66;5094575;28;20059;-67
2022/01/05 06:26:34;;;;;;;7.47;4.95;;;;;;;11.99;89.11;99714.41;5093544;28;20055;-67
2022/01/05 06:28:59;;;;;;;7.13;4.82;;;;;;;12.02;89.55;99722.00;5093453;28;20043;-68
2022/01/05 06:31:25;;;;;;;8.10;6.13;;;;;;;11.98;89.22;99712.78;5094310;28;20038;-67
2022/01/05 06:33:51;;;;;;;10.30;5.88;;;;;;;11.98;89.35;99714.78;5093064;28;20387;-67
2022/01/05 06:36:17;;;;;;;7.53;5.75;;;;;;;12.07;89.25;99710.50;5093194;28;20062;-67
2022/01/05 06:38:43;;;;;;;11.00;5.85;;;;;;;12.05;88.85;99710.09;5077043;28;20118;-67
2022/01/05 06:41:09;;;;;;;10.90;6.25;;;;;;;12.04;88.55;99702.13;5094405;28;20099;-67
2022/01/05 06:43:34;;;;;;;11.88;7.00;;;;;;;12.05;89.01;99689.78;5093232;28;20474;-67
2022/01/05 06:46:00;;;;;;;11.02;7.32;;;;;;;12.01;88.29;99695.31;5092770;28;20032;-68
2022/01/05 06:48:26;;;;;;;12.27;7.22;;;;;;;12.06;88.41;99692.16;5092966;28;20020;-66
2022/01/05 06:50:51;;;;;;;15.23;8.55;;;;;;;12.15;87.56;99682.69;5092828;28;20028;-66
2022/01/05 06:53:17;;;;;;;11.55;8.55;;;;;;;12.17;86.77;99675.53;5094376;28;20024;-68
2022/01/05 06:55:43;;;;;;;11.35;7.95;;;;;;;12.46;85.81;99679.31;5093875;28;20378;-66
2022/01/05 06:58:08;;;;;;;7.82;6.55;;;;;;;13.07;83.32;99674.91;5093635;28;20031;-66
2022/01/05 07:00:34;;;;;;;10.95;6.05;;;;;;;13.58;80.05;99662.75;5094281;28;20381;-67
2022/01/05 07:03:00;;;;;;;10.35;6.00;;;;;;;14.08;77.67;99659.22;5093260;28;20032;-68
2022/01/05 07:05:25;;;;;;;9.15;5.85;;;;;;;14.41;73.94;99658.78;5092672;28;20429;-67
2022/01/05 07:07:51;;;;;;;9.43;4.47;;;;;;;14.75;73.10;99660.34;5092745;28;20111;-68
2022/01/05 07:10:17;;;;;;;9.15;5.30;;;;;;;15.14;70.49;99641.44;5092520;28;20032;-67
2022/01/05 07:12:43;;;;;;;7.70;4.53;;;;;;;15.54;68.42;99644.81;5091857;28;20182;-68
2022/01/05 07:15:10;;;;;;;8.43;4.03;;;;;;;15.75;67.19;99643.13;5092580;28;20035;-66
2022/01/05 07:17:36;;;;;;;5.38;3.50;;;;;;;15.97;65.46;99641.75;5093080;28;20024;-66
2022/01/05 07:20:04;;;;;;;4.95;3.30;;;;;;;16.68;64.62;99640.34;5093437;28;20024;-70
2022/01/05 07:22:30;;;;;;;9.98;3.17;;;;;;;16.72;62.38;99638.28;5095389;28;20529;-69
2022/01/05 07:24:56;;;;;;;10.90;3.70;;;;;;;17.01;61.02;99639.56;5094306;28;20060;-69
2022/01/05 07:27:31;;;;;;;4.05;2.97;;;;;;;17.60;59.54;99641.22;5094953;28;20123;-72
2022/01/05 07:29:57;;;;;;;14.55;8.80;;;;;;;17.25;60.08;99637.66;5092535;28;20020;-68
2022/01/05 07:32:22;;;;;;;12.77;7.35;;;;;;;16.79;60.62;99629.00;5092866;28;20039;-67
2022/01/05 07:34:48;;;;;;;8.57;4.88;;;;;;;17.38;59.57;99640.72;5092637;28;20040;-68
2022/01/05 07:37:13;;;;;;;8.00;5.10;;;;;;;17.87;59.11;99637.63;5094261;28;20466;-67
2022/01/05 07:39:39;;;;;;;10.30;5.10;;;;;;;18.28;57.23;99635.34;5093608;28;20081;-68
2022/01/05 07:42:06;;;;;;;10.35;6.95;;;;;;;18.83;55.67;99644.44;5092208;28;20036;-68
2022/01/05 07:44:31;;;;;;;15.07;10.68;;;;;;;18.82;55.52;99646.47;5093379;28;20016;-69
2022/01/05 07:46:57;;;;;;;10.90;6.55;;;;;;;19.15;54.73;99657.91;5092241;28;20043;-69
2022/01/05 07:49:22;;;;;;;7.70;5.22;;;;;;;19.10;54.57;99656.38;5092260;28;20126;-69
2022/01/05 07:51:48;;;;;;;6.57;4.25;;;;;;;19.45;54.05;99656.09;5092742;28;20459;-69
2022/01/05 07:54:14;;;;;;;7.82;3.78;;;;;;;19.58;51.22;99652.13;5092810;28;20020;-68
2022/01/05 07:56:39;;;;;;;6.93;4.22;;;;;;;19.49;52.07;99637.81;5092221;28;20036;-68
2022/01/05 07:59:05;;;;;;;5.70;4.68;;;;;;;18.61;55.30;99652.47;5091985;28;20455;-68
2022/01/05 08:01:30;;;;;;;6.88;4.72;;;;;;;18.76;55.23;99655.88;5093094;28;20035;-67
2022/01/05 08:03:56;;;;;;;7.45;4.72;;;;;;;17.91;56.92;99655.28;5091244;28;20482;-69
2022/01/05 08:06:22;;;;;;;5.82;3.97;;;;;;;18.21;55.00;99652.34;5092171;28;20055;-68
2022/01/05 08:08:51;;;;;;;7.78;3.03;;;;;;;18.52;55.38;99640.97;5092027;28;20062;-68
2022/01/05 08:11:17;;;;;;;3.92;2.80;;;;;;;17.96;55.64;99652.78;5091482;28;20052;-69
2022/01/05 08:13:44;;;;;;;3.60;2.53;;;;;;;17.82;56.68;99640.94;5093006;28;20111;-68
2022/01/05 08:16:09;;;;;;;11.38;4.07;;;;;;;17.25;58.65;99642.47;5093435;28;20031;-69
2022/01/05 08:18:35;;;;;;;6.85;4.18;;;;;;;17.36;59.08;99642.34;5094252;28;20032;-68
2022/01/05 08:21:02;;;;;;;12.20;4.38;;;;;;;17.61;58.50;99647.63;5095704;28;20029;-67
2022/01/05 08:23:27;;;;;;;6.20;3.78;;;;;;;17.86;58.69;99655.75;5095854;28;20378;-68
2022/01/05 08:25:53;;;;;;;6.03;3.95;;;;;;;17.27;58.31;99654.91;5095859;28;20028;-68
2022/01/05 08:28:19;;;;;;;5.68;3.72;;;;;;;17.51;58.72;99655.78;5095938;28;20074;-67
2022/01/05 08:30:45;;;;;;;10.95;4.22;;;;;;;17.03;59.29;99658.81;5096707;28;20032;-68
2022/01/05 08:33:13;;;;;;;4.90;4.22;;;;;;;17.04;60.06;99637.94;5096183;28;20392;-68
2022/01/05 08:35:39;;;;;;;10.13;5.57;;;;;;;17.14;59.45;99653.06;5095384;28;20036;-67
2022/01/05 08:38:04;;;;;;;9.93;5.20;;;;;;;17.03;60.14;99648.38;5094963;28;20024;-68
2022/01/05 08:40:32;;;;;;;11.00;6.80;;;;;;;17.10;60.36;99652.31;5095258;28;20050;-67
2022/01/05 08:42:57;;;;;;;8.57;5.13;;;;;;;16.83;61.50;99653.03;5094975;28;20024;-67
2022/01/05 08:45:24;;;;;;;6.15;4.57;;;;;;;16.95;61.43;99648.91;5095278;28;20028;-67
2022/01/05 08:47:51;;;;;;;7.97;4.50;;;;;;;16.92;60.38;99649.72;5096721;28;20027;-68
2022/01/05 08:50:21;;;;;;;6.30;4.10;;;;;;;17.13;59.43;99646.66;5096336;28;20111;-68
2022/01/05 08:52:47;;;;;;;10.02;4.93;;;;;;;16.91;60.48;99646.13;5078292;28;20032;-68
2022/01/05 08:55:15;;;;;;;10.98;4.90;;;;;;;17.14;59.05;99636.19;5095576;28;20040;-67
2022/01/05 08:57:42;;;;;;;15.80;9.55;;;;;;;17.31;60.48;99642.81;5095984;28;20020;-68
2022/01/05 09:00:09;;;;;;;17.88;12.75;;;;;;;16.92;60.68;99653.31;5096727;28;20031;-68
2022/01/05 09:02:34;;;;;;;15.43;8.65;;;;;;;17.13;61.61;99643.06;5094828;28;20051;-68
2022/01/05 09:05:00;;;;;;;20.65;14.52;;;;;;;16.63;61.88;99632.38;5094741;28;20059;-68
2022/01/05 09:07:25;;;;;;;16.40;11.50;;;;;;;16.27;63.72;99629.91;5094742;28;20061;-68
2022/01/05 09:09:51;;;;;;;19.65;9.00;;;;;;;16.02;63.61;99624.47;5095353;28;20031;-67
2022/01/05 09:12:17;;;;;;;12.88;9.45;;;;;;;16.13;63.45;99608.34;5094882;28;20071;-67
2022/01/05 09:14:42;;;;;;;15.15;8.13;;;;;;;16.11;62.98;99616.41;5095163;28;20386;-67
2022/01/05 09:17:08;;;;;;;18.58;11.55;;;;;;;15.81;65.29;99619.03;5095914;28;20028;-67
2022/01/05 09:19:34;;;;;;;15.52;11.65;;;;;;;16.02;64.37;99618.88;5095119;28;20036;-67
2022/01/05 09:22:00;;;;;;;14.93;10.38;;;;;;;16.52;63.01;99624.03;5094797;28;20192;-68
2022/01/05 09:24:26;;;;;;;12.95;9.90;;;;;;;16.48;62.55;99609.25;5094462;28;20016;-67
2022/01/05 09:26:52;;;;;;;20.60;11.35;;;;;;;16.65;62.48;99605.44;5095716;28;20028;-68
2022/01/05 09:29:18;;;;;;;10.38;8.02;;;;;;;16.44;62.32;99605.66;5094679;28;20054;-68
2022/01/05 09:31:44;;;;;;;11.10;7.63;;;;;;;16.08;62.74;99594.75;5095235;28;20032;-68
2022/01/05 09:34:10;;;;;;;11.77;6.47;;;;;;;15.96;63.98;99586.88;5095573;28;20030;-67
2022/01/05 09:36:41;;;;;;;7.03;5.63;;;;;;;15.89;64.35;99586.94;5094479;28;20359;-67
2022/01/05 09:41:59;;;;;;;10.90;4.65;;;;;;;16.50;60.90;99584.34;5095400;28;20046;-67
2022/01/05 09:44:29;;;;;;;10.73;5.38;;;;;;;16.63;60.78;99579.00;5095642;28;20032;-67
2022/01/05 09:47:10;;;;;;;11.73;5.18;;;;;;;16.40;60.99;99572.00;5094938;28;20528;-68
2022/01/05 09:49:45;;;;;;;7.80;5.30;;;;;;;16.23;61.78;99573.78;5093895;28;20549;-67
2022/01/05 09:52:11;;;;;;;8.75;6.53;;;;;;;16.67;60.44;99574.13;5093850;28;20051;-67
2022/01/05 09:54:42;;;;;;;13.25;6.00;;;;;;;16.71;58.86;99575.69;5094032;28;20405;-67
2022/01/05 09:57:10;;;;;;;10.38;5.72;;;;;;;16.94;58.02;99548.97;5094116;28;20032;-68
2022/01/05 09:59:36;;;;;;;10.07;5.95;;;;;;;17.03;57.56;99564.06;5095591;28;20032;-68
2022/01/05 10:02:07;;;;;;;6.13;4.20;;;;;;;16.52;59.86;99567.88;5094081;28;20505;-67
2022/01/05 10:04:36;;;;;;;8.48;5.13;;;;;;;16.47;59.38;99563.53;5095213;28;20024;-67
2022/01/05 10:07:03;;;;;;;5.90;4.95;;;;;;;16.91;57.90;99550.59;5093620;28;20086;-67
2022/01/05 10:09:29;;;;;;;7.55;4.22;;;;;;;16.72;58.49;99546.41;5093985;28;20059;-67
2022/01/05 10:11:54;;;;;;;8.80;4.55;;;;;;;16.77;58.03;99542.31;5094581;28;20451;-67
2022/01/05 10:14:20;;;;;;;5.07;3.38;;;;;;;16.33;58.61;99532.00;5093539;28;20103;-67
2022/01/05 10:17:13;;;;;;;7.97;4.25;;;;;;;16.54;58.83;99526.13;5093393;28;20032;-67
2022/01/05 10:19:40;;;;;;;8.70;4.85;;;;;;;16.94;57.00;99515.25;5094001;28;20165;-67
2022/01/05 10:22:32;;;;;;;9.32;4.82;;;;;;;16.93;56.56;99508.00;5093332;28;20043;-67
2022/01/05 10:24:59;;;;;;;6.68;3.72;;;;;;;17.12;55.81;99498.91;5093840;28;20039;-67
2022/01/05 10:27:26;;;;;;;6.30;4.07;;;;;;;17.08;55.29;99503.78;5094536;28;20036;-67
2022/01/05 10:29:57;;;;;;;7.25;3.70;;;;;;;17.28;54.25;99501.88;5076621;28;20060;-67
2022/01/05 10:32:25;;;;;;;8.02;4.50;;;;;;;17.44;54.34;99500.44;5094472;28;20445;-67
2022/01/05 10:35:01;;;;;;;7.22;4.15;;;;;;;17.31;54.69;99511.50;5093905;28;20024;-68
2022/01/05 10:37:26;;;;;;;8.65;5.90;;;;;;;17.18;54.09;99508.44;5093473;28;20028;-67
2022/01/05 10:40:07;;;;;;;11.23;4.43;;;;;;;17.22;52.84;99478.28;5093039;28;20031;-67
2022/01/05 10:42:34;;;;;;;8.10;4.63;;;;;;;17.76;52.21;99492.28;5092632;28;20074;-67
2022/01/05 10:45:02;;;;;;;7.80;4.25;;;;;;;17.61;51.43;99496.53;5092659;28;20035;-67
2022/01/05 10:47:27;;;;;;;9.60;4.35;;;;;;;17.82;51.19;99483.34;5093800;28;20474;-70
2022/01/05 10:49:54;;;;;;;5.00;4.45;;;;;;;18.23;49.96;99483.78;5094511;28;20020;-68
2022/01/05 10:52:37;;;;;;;9.75;5.18;;;;;;;18.21;49.49;99472.16;5092922;28;20032;-68
2022/01/05 10:55:17;;;;;;;11.82;4.35;;;;;;;18.54;48.48;99467.47;5092772;28;20024;-68
2022/01/05 10:58:07;;;;;;;8.10;4.32;;;;;;;18.21;50.06;99466.53;5093076;28;20027;-67
2022/01/05 11:00:44;;;;;;;8.60;6.05;;;;;;;17.64;50.97;99458.34;5092995;28;20466;-68
2022/01/05 11:03:39;;;;;;;6.90;3.88;;;;;;;17.33;52.82;99443.56;5093724;28;20024;-67
2022/01/05 11:06:16;;;;;;;7.80;4.47;;;;;;;17.86;51.95;99444.69;5093199;28;20085;-68
2022/01/05 11:09:04;;;;;;;8.63;4.65;;;;;;;18.14;49.93;99448.97;5092678;28;20038;-67
2022/01/05 11:11:44;;;;;;;7.70;4.90;;;;;;;18.17;50.37;99448.94;5093115;28;20051;-66
2022/01/05 11:14:31;;;;;;;7.43;5.18;;;;;;;18.32;49.05;99438.97;5094402;28;20047;-68
2022/01/05 11:17:04;;;;;;;7.93;4.85;;;;;;;18.44;49.07;99426.25;5092706;28;20113;-67
2022/01/05 11:19:33;;;;;;;9.98;4.75;;;;;;;18.02;49.17;99428.69;5075975;28;20036;-68
2022/01/05 11:22:20;;;;;;;7.15;4.60;;;;;;;17.95;49.78;99416.75;5093181;28;20036;-66
2022/01/05 11:24:53;;;;;;;6.80;4.30;;;;;;;17.69;49.97;99422.06;5092495;28;20027;-68
2022/01/05 11:27:28;;;;;;;5.97;4.70;;;;;;;17.64;50.89;99414.13;5092277;28;20040;-68
2022/01/05 11:29:57;;;;;;;6.47;5.18;;;;;;;17.90;49.96;99420.09;5093791;28;20027;-68
2022/01/05 11:32:27;;;;;;;8.48;6.30;;;;;;;17.93;48.32;99416.41;5094537;28;20085;-66